sensor_id;sensor_type;location;lat;lon;timestamp;P1;durP1;ratioP1;P2;durP2;ratioP2
68140;SDS011;54941;52.220;104.306;2023-09-19T00:01:40;26.98;;;10.52;;
68140;SDS011;54941;52.220;104.306;2023-09-19T00:04:08;16.63;;;8.52;;
68140;SDS011;54941;52.220;104.306;2023-09-19T00:06:35;21.58;;;8.55;;
68140;SDS011;54941;52.220;104.306;2023-09-19T00:09:01;30.40;;;9.13;;
68140;SDS011;54941;52.220;104.306;2023-09-19T00:11:28;20.08;;;9.20;;
68140;SDS011;54941;52.220;104.306;2023-09-19T00:13:55;31.85;;;8.45;;
68140;SDS011;54941;52.220;104.306;2023-09-19T00:16:21;37.65;;;7.82;;
68140;SDS011;54941;52.220;104.306;2023-09-19T00:18:47;96.80;;;11.65;;
68140;SDS011;54941;52.220;104.306;2023-09-19T00:21:15;77.10;;;13.10;;
68140;SDS011;54941;52.220;104.306;2023-09-19T00:23:41;131.13;;;16.48;;
68140;SDS011;54941;52.220;104.306;2023-09-19T00:26:08;124.47;;;12.45;;
68140;SDS011;54941;52.220;104.306;2023-09-19T00:28:34;69.00;;;9.32;;
68140;SDS011;54941;52.220;104.306;2023-09-19T00:31:01;83.68;;;9.50;;
68140;SDS011;54941;52.220;104.306;2023-09-19T00:33:28;65.40;;;9.05;;
68140;SDS011;54941;52.220;104.306;2023-09-19T00:35:55;60.67;;;9.73;;
68140;SDS011;54941;52.220;104.306;2023-09-19T00:38:24;75.60;;;10.60;;
68140;SDS011;54941;52.220;104.306;2023-09-19T00:40:50;74.28;;;9.13;;
68140;SDS011;54941;52.220;104.306;2023-09-19T00:43:17;69.68;;;8.43;;
68140;SDS011;54941;52.220;104.306;2023-09-19T00:45:45;22.05;;;5.90;;
68140;SDS011;54941;52.220;104.306;2023-09-19T00:48:13;54.30;;;6.72;;
68140;SDS011;54941;52.220;104.306;2023-09-19T00:50:41;27.92;;;7.53;;
68140;SDS011;54941;52.220;104.306;2023-09-19T00:53:09;61.90;;;6.75;;
68140;SDS011;54941;52.220;104.306;2023-09-19T00:55:40;32.60;;;6.35;;
68140;SDS011;54941;52.220;104.306;2023-09-19T00:58:07;31.17;;;6.22;;
68140;SDS011;54941;52.220;104.306;2023-09-19T01:00:33;19.38;;;5.47;;
68140;SDS011;54941;52.220;104.306;2023-09-19T01:03:00;18.42;;;5.53;;
68140;SDS011;54941;52.220;104.306;2023-09-19T01:05:26;8.10;;;5.28;;
68140;SDS011;54941;52.220;104.306;2023-09-19T01:07:53;7.35;;;5.13;;
68140;SDS011;54941;52.220;104.306;2023-09-19T01:10:22;8.38;;;4.60;;
68140;SDS011;54941;52.220;104.306;2023-09-19T01:12:52;9.48;;;4.88;;
68140;SDS011;54941;52.220;104.306;2023-09-19T01:15:28;7.47;;;4.25;;
68140;SDS011;54941;52.220;104.306;2023-09-19T01:21:00;7.75;;;5.28;;
68140;SDS011;54941;52.220;104.306;2023-09-19T01:23:38;9.25;;;5.63;;
68140;SDS011;54941;52.220;104.306;2023-09-19T01:26:18;7.78;;;4.25;;
68140;SDS011;54941;52.220;104.306;2023-09-19T01:29:17;5.68;;;3.03;;
68140;SDS011;54941;52.220;104.306;2023-09-19T01:32:31;5.35;;;3.47;;
68140;SDS011;54941;52.220;104.306;2023-09-19T01:34:57;4.57;;;2.40;;
68140;SDS011;54941;52.220;104.306;2023-09-19T01:37:24;4.40;;;2.75;;
68140;SDS011;54941;52.220;104.306;2023-09-19T01:39:51;4.57;;;3.22;;
68140;SDS011;54941;52.220;104.306;2023-09-19T01:42:24;5.15;;;2.78;;
68140;SDS011;54941;52.220;104.306;2023-09-19T01:44:59;9.20;;;4.25;;
68140;SDS011;54941;52.220;104.306;2023-09-19T01:50:02;7.10;;;4.70;;
68140;SDS011;54941;52.220;104.306;2023-09-19T01:52:40;6.38;;;4.00;;
68140;SDS011;54941;52.220;104.306;2023-09-19T01:55:22;8.77;;;6.25;;
68140;SDS011;54941;52.220;104.306;2023-09-19T01:57:54;9.63;;;5.53;;
68140;SDS011;54941;52.220;104.306;2023-09-19T02:00:26;10.77;;;5.18;;
68140;SDS011;54941;52.220;104.306;2023-09-19T02:02:56;5.03;;;3.40;;
68140;SDS011;54941;52.220;104.306;2023-09-19T02:05:24;4.88;;;3.85;;
68140;SDS011;54941;52.220;104.306;2023-09-19T02:07:51;5.28;;;3.20;;
68140;SDS011;54941;52.220;104.306;2023-09-19T02:10:18;4.10;;;2.75;;
68140;SDS011;54941;52.220;104.306;2023-09-19T02:12:45;4.78;;;2.97;;
68140;SDS011;54941;52.220;104.306;2023-09-19T02:15:12;5.43;;;2.83;;
68140;SDS011;54941;52.220;104.306;2023-09-19T02:17:38;4.75;;;3.15;;
68140;SDS011;54941;52.220;104.306;2023-09-19T02:20:07;4.55;;;3.08;;
68140;SDS011;54941;52.220;104.306;2023-09-19T02:22:34;4.32;;;2.60;;
68140;SDS011;54941;52.220;104.306;2023-09-19T02:25:00;4.82;;;3.15;;
68140;SDS011;54941;52.220;104.306;2023-09-19T02:27:29;4.20;;;3.20;;
68140;SDS011;54941;52.220;104.306;2023-09-19T02:29:55;4.30;;;2.90;;
68140;SDS011;54941;52.220;104.306;2023-09-19T02:32:21;5.80;;;2.80;;
68140;SDS011;54941;52.220;104.306;2023-09-19T02:34:48;4.78;;;3.08;;
68140;SDS011;54941;52.220;104.306;2023-09-19T02:37:16;4.93;;;3.90;;
68140;SDS011;54941;52.220;104.306;2023-09-19T02:39:42;9.07;;;4.00;;
68140;SDS011;54941;52.220;104.306;2023-09-19T02:42:09;5.57;;;3.28;;
68140;SDS011;54941;52.220;104.306;2023-09-19T02:44:35;5.60;;;3.58;;
68140;SDS011;54941;52.220;104.306;2023-09-19T02:47:04;4.38;;;3.08;;
68140;SDS011;54941;52.220;104.306;2023-09-19T02:49:30;4.63;;;3.13;;
68140;SDS011;54941;52.220;104.306;2023-09-19T02:51:56;3.67;;;2.83;;
68140;SDS011;54941;52.220;104.306;2023-09-19T02:54:24;5.57;;;3.28;;
68140;SDS011;54941;52.220;104.306;2023-09-19T02:56:51;4.97;;;3.33;;
68140;SDS011;54941;52.220;104.306;2023-09-19T02:59:17;5.57;;;3.83;;
68140;SDS011;54941;52.220;104.306;2023-09-19T03:01:43;5.45;;;3.53;;
68140;SDS011;54941;52.220;104.306;2023-09-19T03:04:10;5.82;;;3.40;;
68140;SDS011;54941;52.220;104.306;2023-09-19T03:06:36;5.15;;;3.17;;
68140;SDS011;54941;52.220;104.306;2023-09-19T03:09:02;4.47;;;3.15;;
68140;SDS011;54941;52.220;104.306;2023-09-19T03:11:30;5.13;;;3.58;;
68140;SDS011;54941;52.220;104.306;2023-09-19T03:13:57;4.40;;;2.95;;
68140;SDS011;54941;52.220;104.306;2023-09-19T03:16:23;5.07;;;3.38;;
68140;SDS011;54941;52.220;104.306;2023-09-19T03:18:50;5.07;;;3.25;;
68140;SDS011;54941;52.220;104.306;2023-09-19T03:21:17;6.07;;;3.53;;
68140;SDS011;54941;52.220;104.306;2023-09-19T03:23:43;5.50;;;3.40;;
68140;SDS011;54941;52.220;104.306;2023-09-19T03:26:10;6.50;;;3.47;;
68140;SDS011;54941;52.220;104.306;2023-09-19T03:28:38;6.82;;;3.97;;
68140;SDS011;54941;52.220;104.306;2023-09-19T03:31:05;4.20;;;3.15;;
68140;SDS011;54941;52.220;104.306;2023-09-19T03:33:31;5.82;;;3.53;;
68140;SDS011;54941;52.220;104.306;2023-09-19T03:35:58;4.90;;;3.10;;
68140;SDS011;54941;52.220;104.306;2023-09-19T03:38:24;6.82;;;3.55;;
68140;SDS011;54941;52.220;104.306;2023-09-19T03:40:51;9.63;;;3.40;;
68140;SDS011;54941;52.220;104.306;2023-09-19T03:43:17;5.03;;;3.28;;
68140;SDS011;54941;52.220;104.306;2023-09-19T03:45:45;7.10;;;3.30;;
68140;SDS011;54941;52.220;104.306;2023-09-19T03:48:11;5.00;;;3.22;;
68140;SDS011;54941;52.220;104.306;2023-09-19T03:50:38;5.18;;;3.30;;
68140;SDS011;54941;52.220;104.306;2023-09-19T03:53:05;6.07;;;3.90;;
68140;SDS011;54941;52.220;104.306;2023-09-19T03:55:31;6.25;;;3.50;;
68140;SDS011;54941;52.220;104.306;2023-09-19T03:57:58;5.07;;;2.97;;
68140;SDS011;54941;52.220;104.306;2023-09-19T04:00:24;4.20;;;3.33;;
68140;SDS011;54941;52.220;104.306;2023-09-19T04:02:52;3.75;;;2.60;;
68140;SDS011;54941;52.220;104.306;2023-09-19T04:05:19;4.63;;;2.72;;
68140;SDS011;54941;52.220;104.306;2023-09-19T04:07:45;4.22;;;3.00;;
68140;SDS011;54941;52.220;104.306;2023-09-19T04:10:11;5.30;;;3.30;;
68140;SDS011;54941;52.220;104.306;2023-09-19T04:12:38;5.97;;;3.10;;
68140;SDS011;54941;52.220;104.306;2023-09-19T04:15:04;3.67;;;2.50;;
68140;SDS011;54941;52.220;104.306;2023-09-19T04:17:31;5.35;;;2.65;;
68140;SDS011;54941;52.220;104.306;2023-09-19T04:19:59;4.03;;;2.33;;
68140;SDS011;54941;52.220;104.306;2023-09-19T04:22:26;3.90;;;2.58;;
68140;SDS011;54941;52.220;104.306;2023-09-19T04:24:52;4.95;;;2.78;;
68140;SDS011;54941;52.220;104.306;2023-09-19T04:27:18;3.78;;;2.40;;
68140;SDS011;54941;52.220;104.306;2023-09-19T04:29:45;3.55;;;2.30;;
68140;SDS011;54941;52.220;104.306;2023-09-19T04:32:11;4.28;;;2.15;;
68140;SDS011;54941;52.220;104.306;2023-09-19T04:34:37;3.83;;;2.45;;
68140;SDS011;54941;52.220;104.306;2023-09-19T04:37:05;3.85;;;2.45;;
68140;SDS011;54941;52.220;104.306;2023-09-19T04:39:31;5.75;;;2.40;;
68140;SDS011;54941;52.220;104.306;2023-09-19T04:41:57;3.80;;;2.40;;
68140;SDS011;54941;52.220;104.306;2023-09-19T04:44:24;4.53;;;2.63;;
68140;SDS011;54941;52.220;104.306;2023-09-19T04:46:50;3.63;;;2.28;;
68140;SDS011;54941;52.220;104.306;2023-09-19T04:49:16;3.35;;;1.98;;
68140;SDS011;54941;52.220;104.306;2023-09-19T04:51:43;5.03;;;1.90;;
68140;SDS011;54941;52.220;104.306;2023-09-19T04:54:11;3.22;;;2.28;;
68140;SDS011;54941;52.220;104.306;2023-09-19T04:56:37;3.50;;;1.98;;
68140;SDS011;54941;52.220;104.306;2023-09-19T04:59:03;3.42;;;2.10;;
68140;SDS011;54941;52.220;104.306;2023-09-19T05:01:30;2.75;;;1.67;;
68140;SDS011;54941;52.220;104.306;2023-09-19T05:03:56;3.45;;;2.30;;
68140;SDS011;54941;52.220;104.306;2023-09-19T05:06:22;3.03;;;1.80;;
68140;SDS011;54941;52.220;104.306;2023-09-19T05:08:49;3.72;;;2.17;;
68140;SDS011;54941;52.220;104.306;2023-09-19T05:11:20;4.18;;;1.98;;
68140;SDS011;54941;52.220;104.306;2023-09-19T05:13:46;4.90;;;2.15;;
68140;SDS011;54941;52.220;104.306;2023-09-19T05:16:13;3.88;;;2.05;;
68140;SDS011;54941;52.220;104.306;2023-09-19T05:18:41;3.63;;;2.30;;
68140;SDS011;54941;52.220;104.306;2023-09-19T05:21:08;4.05;;;2.80;;
68140;SDS011;54941;52.220;104.306;2023-09-19T05:23:34;5.63;;;2.78;;
68140;SDS011;54941;52.220;104.306;2023-09-19T05:26:01;4.32;;;2.40;;
68140;SDS011;54941;52.220;104.306;2023-09-19T05:28:28;4.07;;;1.88;;
68140;SDS011;54941;52.220;104.306;2023-09-19T05:30:55;4.70;;;2.80;;
68140;SDS011;54941;52.220;104.306;2023-09-19T05:33:21;3.10;;;2.10;;
68140;SDS011;54941;52.220;104.306;2023-09-19T05:35:47;3.30;;;2.17;;
68140;SDS011;54941;52.220;104.306;2023-09-19T05:38:14;4.90;;;1.85;;
68140;SDS011;54941;52.220;104.306;2023-09-19T05:40:41;4.05;;;1.83;;
68140;SDS011;54941;52.220;104.306;2023-09-19T05:43:07;3.63;;;2.35;;
68140;SDS011;54941;52.220;104.306;2023-09-19T05:45:35;3.28;;;2.20;;
68140;SDS011;54941;52.220;104.306;2023-09-19T05:48:07;3.08;;;2.38;;
68140;SDS011;54941;52.220;104.306;2023-09-19T05:50:34;3.67;;;2.10;;
68140;SDS011;54941;52.220;104.306;2023-09-19T05:53:00;5.82;;;2.22;;
68140;SDS011;54941;52.220;104.306;2023-09-19T05:55:26;4.05;;;1.70;;
68140;SDS011;54941;52.220;104.306;2023-09-19T05:57:53;3.25;;;2.20;;
68140;SDS011;54941;52.220;104.306;2023-09-19T06:00:20;4.40;;;2.30;;
68140;SDS011;54941;52.220;104.306;2023-09-19T06:02:50;3.58;;;1.98;;
68140;SDS011;54941;52.220;104.306;2023-09-19T06:05:16;2.75;;;1.90;;
68140;SDS011;54941;52.220;104.306;2023-09-19T06:07:43;3.17;;;1.83;;
68140;SDS011;54941;52.220;104.306;2023-09-19T06:10:09;3.30;;;2.00;;
68140;SDS011;54941;52.220;104.306;2023-09-19T06:12:39;2.65;;;2.10;;
68140;SDS011;54941;52.220;104.306;2023-09-19T06:15:06;3.60;;;1.88;;
68140;SDS011;54941;52.220;104.306;2023-09-19T06:17:32;2.80;;;1.67;;
68140;SDS011;54941;52.220;104.306;2023-09-19T06:20:00;3.05;;;2.10;;
68140;SDS011;54941;52.220;104.306;2023-09-19T06:22:26;3.05;;;2.10;;
68140;SDS011;54941;52.220;104.306;2023-09-19T06:24:53;4.03;;;1.48;;
68140;SDS011;54941;52.220;104.306;2023-09-19T06:27:19;3.70;;;1.92;;
68140;SDS011;54941;52.220;104.306;2023-09-19T06:29:45;3.00;;;1.80;;
68140;SDS011;54941;52.220;104.306;2023-09-19T06:32:12;3.22;;;2.20;;
68140;SDS011;54941;52.220;104.306;2023-09-19T06:34:38;3.67;;;2.15;;
68140;SDS011;54941;52.220;104.306;2023-09-19T06:37:08;3.97;;;2.35;;
68140;SDS011;54941;52.220;104.306;2023-09-19T06:39:34;3.10;;;1.73;;
68140;SDS011;54941;52.220;104.306;2023-09-19T06:42:01;4.15;;;1.77;;
68140;SDS011;54941;52.220;104.306;2023-09-19T06:44:27;3.30;;;1.70;;
68140;SDS011;54941;52.220;104.306;2023-09-19T06:46:56;3.88;;;2.28;;
68140;SDS011;54941;52.220;104.306;2023-09-19T06:49:22;3.35;;;1.88;;
68140;SDS011;54941;52.220;104.306;2023-09-19T06:51:49;3.83;;;2.17;;
68140;SDS011;54941;52.220;104.306;2023-09-19T06:54:17;4.07;;;2.15;;
68140;SDS011;54941;52.220;104.306;2023-09-19T06:56:43;3.17;;;1.90;;
68140;SDS011;54941;52.220;104.306;2023-09-19T06:59:09;2.78;;;1.73;;
68140;SDS011;54941;52.220;104.306;2023-09-19T07:01:36;3.35;;;1.70;;
68140;SDS011;54941;52.220;104.306;2023-09-19T07:04:02;3.13;;;1.90;;
68140;SDS011;54941;52.220;104.306;2023-09-19T07:06:29;3.47;;;2.00;;
68140;SDS011;54941;52.220;104.306;2023-09-19T07:08:55;3.75;;;2.03;;
68140;SDS011;54941;52.220;104.306;2023-09-19T07:11:23;3.42;;;1.92;;
68140;SDS011;54941;52.220;104.306;2023-09-19T07:13:49;3.85;;;2.20;;
68140;SDS011;54941;52.220;104.306;2023-09-19T07:16:15;3.40;;;1.67;;
68140;SDS011;54941;52.220;104.306;2023-09-19T07:18:42;3.75;;;1.90;;
68140;SDS011;54941;52.220;104.306;2023-09-19T07:21:08;2.80;;;1.80;;
68140;SDS011;54941;52.220;104.306;2023-09-19T07:23:34;4.05;;;2.20;;
68140;SDS011;54941;52.220;104.306;2023-09-19T07:26:00;2.50;;;1.70;;
68140;SDS011;54941;52.220;104.306;2023-09-19T07:28:28;3.20;;;1.73;;
68140;SDS011;54941;52.220;104.306;2023-09-19T07:30:55;3.95;;;1.80;;
68140;SDS011;54941;52.220;104.306;2023-09-19T07:33:21;2.90;;;1.63;;
68140;SDS011;54941;52.220;104.306;2023-09-19T07:35:47;3.03;;;1.73;;
68140;SDS011;54941;52.220;104.306;2023-09-19T07:38:14;3.08;;;1.58;;
68140;SDS011;54941;52.220;104.306;2023-09-19T07:40:40;3.10;;;2.10;;
68140;SDS011;54941;52.220;104.306;2023-09-19T07:43:07;2.45;;;1.42;;
68140;SDS011;54941;52.220;104.306;2023-09-19T07:45:37;4.28;;;2.20;;
68140;SDS011;54941;52.220;104.306;2023-09-19T07:48:03;2.88;;;1.67;;
68140;SDS011;54941;52.220;104.306;2023-09-19T07:50:33;4.22;;;1.95;;
68140;SDS011;54941;52.220;104.306;2023-09-19T07:52:59;3.28;;;1.85;;
68140;SDS011;54941;52.220;104.306;2023-09-19T07:55:26;4.00;;;1.60;;
68140;SDS011;54941;52.220;104.306;2023-09-19T07:57:52;3.95;;;1.90;;
68140;SDS011;54941;52.220;104.306;2023-09-19T08:00:19;2.90;;;1.83;;
68140;SDS011;54941;52.220;104.306;2023-09-19T08:02:46;3.38;;;1.40;;
68140;SDS011;54941;52.220;104.306;2023-09-19T08:05:13;2.97;;;1.70;;
68140;SDS011;54941;52.220;104.306;2023-09-19T08:07:40;2.55;;;1.48;;
68140;SDS011;54941;52.220;104.306;2023-09-19T08:10:08;2.72;;;1.33;;
68140;SDS011;54941;52.220;104.306;2023-09-19T08:12:35;3.55;;;1.10;;
68140;SDS011;54941;52.220;104.306;2023-09-19T08:15:01;2.42;;;1.30;;
68140;SDS011;54941;52.220;104.306;2023-09-19T08:20:00;2.92;;;1.30;;
68140;SDS011;54941;52.220;104.306;2023-09-19T08:22:28;3.20;;;1.48;;
68140;SDS011;54941;52.220;104.306;2023-09-19T08:24:56;2.58;;;1.30;;
68140;SDS011;54941;52.220;104.306;2023-09-19T08:27:23;2.97;;;1.38;;
68140;SDS011;54941;52.220;104.306;2023-09-19T08:29:49;2.67;;;1.30;;
68140;SDS011;54941;52.220;104.306;2023-09-19T08:32:18;2.65;;;1.17;;
68140;SDS011;54941;52.220;104.306;2023-09-19T08:34:47;3.42;;;1.23;;
68140;SDS011;54941;52.220;104.306;2023-09-19T08:37:15;2.72;;;1.20;;
68140;SDS011;54941;52.220;104.306;2023-09-19T08:39:41;3.55;;;1.63;;
68140;SDS011;54941;52.220;104.306;2023-09-19T08:42:07;3.90;;;1.70;;
68140;SDS011;54941;52.220;104.306;2023-09-19T08:44:35;3.38;;;1.80;;
68140;SDS011;54941;52.220;104.306;2023-09-19T08:47:05;6.22;;;3.60;;
68140;SDS011;54941;52.220;104.306;2023-09-19T08:49:37;3.45;;;1.50;;
68140;SDS011;54941;52.220;104.306;2023-09-19T08:52:22;2.45;;;1.30;;
68140;SDS011;54941;52.220;104.306;2023-09-19T08:54:53;3.38;;;1.77;;
68140;SDS011;54941;52.220;104.306;2023-09-19T08:57:24;4.25;;;1.58;;
68140;SDS011;54941;52.220;104.306;2023-09-19T08:59:54;3.35;;;1.70;;
68140;SDS011;54941;52.220;104.306;2023-09-19T09:02:23;2.38;;;1.10;;
68140;SDS011;54941;52.220;104.306;2023-09-19T09:04:50;2.42;;;1.33;;
68140;SDS011;54941;52.220;104.306;2023-09-19T09:07:19;4.47;;;2.00;;
68140;SDS011;54941;52.220;104.306;2023-09-19T09:09:47;3.05;;;1.45;;
68140;SDS011;54941;52.220;104.306;2023-09-19T09:12:13;3.63;;;1.30;;
68140;SDS011;54941;52.220;104.306;2023-09-19T09:14:40;3.70;;;1.67;;
68140;SDS011;54941;52.220;104.306;2023-09-19T09:17:10;3.65;;;1.70;;
68140;SDS011;54941;52.220;104.306;2023-09-19T09:19:36;3.25;;;1.60;;
68140;SDS011;54941;52.220;104.306;2023-09-19T09:22:06;3.08;;;1.30;;
68140;SDS011;54941;52.220;104.306;2023-09-19T09:24:35;2.65;;;1.23;;
68140;SDS011;54941;52.220;104.306;2023-09-19T09:27:02;3.03;;;1.85;;
68140;SDS011;54941;52.220;104.306;2023-09-19T09:29:40;3.65;;;2.10;;
68140;SDS011;54941;52.220;104.306;2023-09-19T09:32:17;7.80;;;3.75;;
68140;SDS011;54941;52.220;104.306;2023-09-19T09:34:45;6.47;;;3.38;;
68140;SDS011;54941;52.220;104.306;2023-09-19T09:39:41;3.28;;;1.80;;
68140;SDS011;54941;52.220;104.306;2023-09-19T09:42:16;4.10;;;2.55;;
68140;SDS011;54941;52.220;104.306;2023-09-19T09:44:59;3.22;;;1.55;;
68140;SDS011;54941;52.220;104.306;2023-09-19T09:47:41;4.20;;;2.67;;
68140;SDS011;54941;52.220;104.306;2023-09-19T09:50:08;5.40;;;2.53;;
68140;SDS011;54941;52.220;104.306;2023-09-19T09:52:44;3.55;;;2.17;;
68140;SDS011;54941;52.220;104.306;2023-09-19T09:55:12;6.38;;;3.47;;
68140;SDS011;54941;52.220;104.306;2023-09-19T09:57:39;5.53;;;3.58;;
68140;SDS011;54941;52.220;104.306;2023-09-19T10:00:05;6.90;;;2.85;;
68140;SDS011;54941;52.220;104.306;2023-09-19T10:02:35;4.30;;;2.72;;
68140;SDS011;54941;52.220;104.306;2023-09-19T10:05:03;8.73;;;3.58;;
68140;SDS011;54941;52.220;104.306;2023-09-19T10:07:37;9.43;;;3.85;;
68140;SDS011;54941;52.220;104.306;2023-09-19T10:10:04;7.78;;;3.53;;
68140;SDS011;54941;52.220;104.306;2023-09-19T10:12:32;7.30;;;3.38;;
68140;SDS011;54941;52.220;104.306;2023-09-19T10:14:59;6.05;;;2.65;;
68140;SDS011;54941;52.220;104.306;2023-09-19T10:17:29;6.30;;;2.92;;
68140;SDS011;54941;52.220;104.306;2023-09-19T10:20:00;4.53;;;2.30;;
68140;SDS011;54941;52.220;104.306;2023-09-19T10:22:29;5.60;;;2.45;;
68140;SDS011;54941;52.220;104.306;2023-09-19T10:24:57;4.05;;;2.20;;
68140;SDS011;54941;52.220;104.306;2023-09-19T10:27:24;4.53;;;1.85;;
68140;SDS011;54941;52.220;104.306;2023-09-19T10:29:53;5.15;;;2.20;;
68140;SDS011;54941;52.220;104.306;2023-09-19T10:32:21;8.35;;;2.13;;
68140;SDS011;54941;52.220;104.306;2023-09-19T10:34:48;4.30;;;2.22;;
68140;SDS011;54941;52.220;104.306;2023-09-19T10:37:15;5.65;;;2.35;;
68140;SDS011;54941;52.220;104.306;2023-09-19T10:39:44;4.07;;;2.30;;
68140;SDS011;54941;52.220;104.306;2023-09-19T10:42:13;3.38;;;1.75;;
68140;SDS011;54941;52.220;104.306;2023-09-19T10:44:44;10.20;;;2.10;;
68140;SDS011;54941;52.220;104.306;2023-09-19T10:47:14;5.32;;;2.45;;
68140;SDS011;54941;52.220;104.306;2023-09-19T10:49:43;7.05;;;2.90;;
68140;SDS011;54941;52.220;104.306;2023-09-19T10:52:09;5.80;;;2.78;;
68140;SDS011;54941;52.220;104.306;2023-09-19T10:54:36;7.00;;;3.00;;
68140;SDS011;54941;52.220;104.306;2023-09-19T10:57:03;4.65;;;3.08;;
68140;SDS011;54941;52.220;104.306;2023-09-19T10:59:29;5.43;;;2.75;;
68140;SDS011;54941;52.220;104.306;2023-09-19T11:01:56;4.47;;;2.35;;
68140;SDS011;54941;52.220;104.306;2023-09-19T11:04:26;5.20;;;2.53;;
68140;SDS011;54941;52.220;104.306;2023-09-19T11:07:03;5.25;;;2.40;;
68140;SDS011;54941;52.220;104.306;2023-09-19T11:09:43;5.60;;;2.38;;
68140;SDS011;54941;52.220;104.306;2023-09-19T11:12:10;3.88;;;2.10;;
68140;SDS011;54941;52.220;104.306;2023-09-19T11:14:40;5.00;;;2.53;;
68140;SDS011;54941;52.220;104.306;2023-09-19T11:20:21;3.95;;;2.63;;
68140;SDS011;54941;52.220;104.306;2023-09-19T11:25:45;5.75;;;3.15;;
68140;SDS011;54941;52.220;104.306;2023-09-19T11:30:56;6.10;;;2.75;;
68140;SDS011;54941;52.220;104.306;2023-09-19T11:33:24;5.88;;;2.35;;
68140;SDS011;54941;52.220;104.306;2023-09-19T11:36:02;4.50;;;2.58;;
68140;SDS011;54941;52.220;104.306;2023-09-19T11:41:39;6.18;;;3.00;;
68140;SDS011;54941;52.220;104.306;2023-09-19T11:46:58;5.38;;;3.17;;
68140;SDS011;54941;52.220;104.306;2023-09-19T11:49:26;5.03;;;2.97;;
68140;SDS011;54941;52.220;104.306;2023-09-19T11:51:55;4.38;;;2.95;;
68140;SDS011;54941;52.220;104.306;2023-09-19T11:54:22;4.30;;;2.30;;
68140;SDS011;54941;52.220;104.306;2023-09-19T11:56:49;4.80;;;2.83;;
68140;SDS011;54941;52.220;104.306;2023-09-19T11:59:19;4.80;;;2.80;;
68140;SDS011;54941;52.220;104.306;2023-09-19T12:01:50;4.68;;;2.20;;
68140;SDS011;54941;52.220;104.306;2023-09-19T12:04:18;6.15;;;2.67;;
68140;SDS011;54941;52.220;104.306;2023-09-19T12:07:02;5.57;;;2.80;;
68140;SDS011;54941;52.220;104.306;2023-09-19T12:09:28;5.13;;;2.65;;
68140;SDS011;54941;52.220;104.306;2023-09-19T12:11:55;5.07;;;3.22;;
68140;SDS011;54941;52.220;104.306;2023-09-19T12:14:22;5.80;;;3.10;;
68140;SDS011;54941;52.220;104.306;2023-09-19T12:16:50;5.88;;;3.25;;
68140;SDS011;54941;52.220;104.306;2023-09-19T12:19:19;9.73;;;4.63;;
68140;SDS011;54941;52.220;104.306;2023-09-19T12:21:53;7.53;;;4.20;;
68140;SDS011;54941;52.220;104.306;2023-09-19T12:24:22;7.13;;;4.07;;
68140;SDS011;54941;52.220;104.306;2023-09-19T12:26:51;5.80;;;3.22;;
68140;SDS011;54941;52.220;104.306;2023-09-19T12:29:18;5.75;;;3.58;;
68140;SDS011;54941;52.220;104.306;2023-09-19T12:31:48;7.38;;;3.90;;
68140;SDS011;54941;52.220;104.306;2023-09-19T12:34:16;7.53;;;4.05;;
68140;SDS011;54941;52.220;104.306;2023-09-19T12:36:42;6.13;;;3.90;;
68140;SDS011;54941;52.220;104.306;2023-09-19T12:39:09;4.78;;;3.20;;
68140;SDS011;54941;52.220;104.306;2023-09-19T12:41:36;5.15;;;3.42;;
68140;SDS011;54941;52.220;104.306;2023-09-19T12:46:30;10.02;;;4.70;;
68140;SDS011;54941;52.220;104.306;2023-09-19T12:49:16;8.05;;;4.28;;
68140;SDS011;54941;52.220;104.306;2023-09-19T12:51:42;8.95;;;5.20;;
68140;SDS011;54941;52.220;104.306;2023-09-19T12:54:09;7.45;;;3.90;;
68140;SDS011;54941;52.220;104.306;2023-09-19T12:56:41;6.68;;;4.63;;
68140;SDS011;54941;52.220;104.306;2023-09-19T12:59:11;11.45;;;5.70;;
68140;SDS011;54941;52.220;104.306;2023-09-19T13:01:38;10.98;;;5.00;;
68140;SDS011;54941;52.220;104.306;2023-09-19T13:04:15;6.82;;;3.95;;
68140;SDS011;54941;52.220;104.306;2023-09-19T13:06:42;5.85;;;3.80;;
68140;SDS011;54941;52.220;104.306;2023-09-19T13:09:08;6.20;;;3.42;;
68140;SDS011;54941;52.220;104.306;2023-09-19T13:11:36;9.43;;;4.55;;
68140;SDS011;54941;52.220;104.306;2023-09-19T13:14:16;9.30;;;5.70;;
68140;SDS011;54941;52.220;104.306;2023-09-19T13:16:53;13.45;;;8.57;;
68140;SDS011;54941;52.220;104.306;2023-09-19T13:19:39;15.20;;;8.90;;
68140;SDS011;54941;52.220;104.306;2023-09-19T13:25:05;15.13;;;8.32;;
68140;SDS011;54941;52.220;104.306;2023-09-19T13:27:33;17.75;;;11.73;;
68140;SDS011;54941;52.220;104.306;2023-09-19T13:30:01;16.35;;;10.57;;
68140;SDS011;54941;52.220;104.306;2023-09-19T13:32:29;18.20;;;12.18;;
68140;SDS011;54941;52.220;104.306;2023-09-19T13:34:57;18.63;;;10.10;;
68140;SDS011;54941;52.220;104.306;2023-09-19T13:37:23;14.45;;;7.57;;
68140;SDS011;54941;52.220;104.306;2023-09-19T13:39:50;13.40;;;8.48;;
68140;SDS011;54941;52.220;104.306;2023-09-19T13:42:16;12.18;;;8.18;;
68140;SDS011;54941;52.220;104.306;2023-09-19T13:44:42;13.10;;;7.10;;
68140;SDS011;54941;52.220;104.306;2023-09-19T13:47:10;13.55;;;7.97;;
68140;SDS011;54941;52.220;104.306;2023-09-19T13:49:37;9.82;;;7.07;;
68140;SDS011;54941;52.220;104.306;2023-09-19T13:52:03;10.88;;;6.32;;
68140;SDS011;54941;52.220;104.306;2023-09-19T13:54:29;13.57;;;8.25;;
68140;SDS011;54941;52.220;104.306;2023-09-19T13:56:56;12.02;;;7.05;;
68140;SDS011;54941;52.220;104.306;2023-09-19T13:59:22;13.68;;;8.38;;
68140;SDS011;54941;52.220;104.306;2023-09-19T14:01:49;16.10;;;7.60;;
68140;SDS011;54941;52.220;104.306;2023-09-19T14:04:17;14.68;;;9.02;;
68140;SDS011;54941;52.220;104.306;2023-09-19T14:06:43;16.90;;;10.35;;
68140;SDS011;54941;52.220;104.306;2023-09-19T14:09:09;18.05;;;10.60;;
68140;SDS011;54941;52.220;104.306;2023-09-19T14:11:36;17.92;;;9.27;;
68140;SDS011;54941;52.220;104.306;2023-09-19T14:14:02;14.25;;;8.45;;
68140;SDS011;54941;52.220;104.306;2023-09-19T14:16:28;16.63;;;8.43;;
68140;SDS011;54941;52.220;104.306;2023-09-19T14:18:55;15.15;;;7.43;;
68140;SDS011;54941;52.220;104.306;2023-09-19T14:21:23;14.73;;;8.25;;
68140;SDS011;54941;52.220;104.306;2023-09-19T14:23:49;17.60;;;10.85;;
68140;SDS011;54941;52.220;104.306;2023-09-19T14:26:15;15.88;;;9.13;;
68140;SDS011;54941;52.220;104.306;2023-09-19T14:28:42;12.57;;;8.00;;
68140;SDS011;54941;52.220;104.306;2023-09-19T14:31:08;12.23;;;6.80;;
68140;SDS011;54941;52.220;104.306;2023-09-19T14:33:36;16.67;;;6.85;;
68140;SDS011;54941;52.220;104.306;2023-09-19T14:36:03;9.02;;;5.40;;
68140;SDS011;54941;52.220;104.306;2023-09-19T14:38:31;10.05;;;5.30;;
68140;SDS011;54941;52.220;104.306;2023-09-19T14:41:01;8.23;;;5.50;;
68140;SDS011;54941;52.220;104.306;2023-09-19T14:43:28;9.88;;;6.90;;
68140;SDS011;54941;52.220;104.306;2023-09-19T14:45:54;13.10;;;7.22;;
68140;SDS011;54941;52.220;104.306;2023-09-19T14:48:24;9.77;;;5.65;;
68140;SDS011;54941;52.220;104.306;2023-09-19T14:50:50;10.15;;;6.07;;
68140;SDS011;54941;52.220;104.306;2023-09-19T14:53:17;14.00;;;8.45;;
68140;SDS011;54941;52.220;104.306;2023-09-19T14:55:45;10.60;;;6.72;;